Rociada, NM

3:19 PM MDT on August 24, 2016 (GMT -0600)
Pendaries RV Resort | | Change Station

Elev 7750 ft 35.85 °N, 105.40 °W | Updated 1 second ago

Scattered Clouds
Scattered Clouds
64.7 °F
Feels Like 64.7 °F
N
0.0
Wind Variable Wind from NNE
Gusts 2.0 mph

Today
High -- | Low -- °F
--% Chance of Precip.
Yesterday
High -- | Low -- °F
Precip. -- in
Pressure 30.22 in
Visibility 10.0 miles
Clouds Scattered Clouds 7000 ft
Scattered Clouds 8500 ft
Dew Point 45 °F
Humidity 49%
Rainfall 0.00 in
Snow Depth Not available.
6:27 AM 7:38 PM
Waning Gibbous, 53% visible
SPECI KLVS 242113Z AUTO 31015G21KT 10SM SCT070 SCT085 23/07 A3022 RMK AO2 PK WND 30028/2054 WSHFT 2053 LTG DSNT NE AND E T02330072
Pressure 30.22 in
Visibility 10.0 miles
Clouds Scattered Clouds 7000 ft
Scattered Clouds 8500 ft
Dew Point 45 °F
Humidity 49%
Rainfall 0.00 in
Snow Depth Not available.
6:27 AM 7:38 PM
Waning Gibbous, 53% visible
SPECI KLVS 242113Z AUTO 31015G21KT 10SM SCT070 SCT085 23/07 A3022 RMK AO2 PK WND 30028/2054 WSHFT 2053 LTG DSNT NE AND E T02330072

10-Day Weather Forecast

Almanac

Astronomy

Aug. 24, 2016 Rise Set
Actual Time
Civil Twilight
Nautical Twilight
Astronomical Twilight
Moon
Length of Visible Light
Length of Day
Tomorrow will be .
, % of the Moon is Illuminated

Today's Extremes

State Highs State Lows

Community

WunderPhotos

Upload Photos

1,934,717 photos uploaded!

WunderBlog® & News

Nearby

Air Quality

  Air Quality AQ Index Pollutant
Not available.

Snow Depth

Station Depth Elevation

Earthquake Activity

City Distance Mag. Time & Date
Minimum magnitude displayed is 2.5.

Coastal Water Temperatures

Place Temperature

Stations

Nearby Weather Stations

Station Location Temp. Windchill Dew Point Humidity Wind Precip. Elev Updated Type
                   

Watches & Warnings

There are currently no watches in effect.